createdAt,value
2023-01-20T00:01:09.868Z,1.90
2023-01-20T00:03:36.885Z,2.20
2023-01-20T00:06:03.695Z,1.80
2023-01-20T00:08:30.585Z,2.40
2023-01-20T00:10:57.149Z,2.10
2023-01-20T00:13:23.835Z,2.73
2023-01-20T00:15:50.409Z,2.90
2023-01-20T00:18:16.911Z,2.97
2023-01-20T00:20:43.640Z,2.67
2023-01-20T00:23:10.147Z,3.00
2023-01-20T00:25:36.950Z,2.17
2023-01-20T00:28:04.164Z,3.17
2023-01-20T00:30:31.123Z,2.23
2023-01-20T00:32:57.621Z,2.17
2023-01-20T00:35:24.165Z,2.10
2023-01-20T00:37:50.670Z,1.93
2023-01-20T00:40:17.335Z,1.87
2023-01-20T00:42:43.840Z,1.90
2023-01-20T00:45:10.747Z,2.03
2023-01-20T00:47:37.713Z,2.17
2023-01-20T00:50:04.636Z,1.90
2023-01-20T00:52:31.384Z,2.23
2023-01-20T00:54:57.877Z,2.13
2023-01-20T00:57:24.343Z,2.17
2023-01-20T00:59:50.803Z,2.73
2023-01-20T01:02:17.374Z,1.50
2023-01-20T01:04:43.897Z,1.93
2023-01-20T01:07:10.427Z,2.03
2023-01-20T01:09:37.086Z,1.97
2023-01-20T01:12:03.673Z,1.70
2023-01-20T01:14:31.640Z,1.70
2023-01-20T01:16:58.140Z,2.07
2023-01-20T01:19:24.882Z,1.93
2023-01-20T01:21:51.444Z,1.93
2023-01-20T01:24:17.975Z,1.73
2023-01-20T01:26:44.474Z,1.60
2023-01-20T01:29:11.476Z,1.70
2023-01-20T01:31:39.083Z,1.50
2023-01-20T01:34:05.758Z,1.77
2023-01-20T01:36:32.287Z,1.90
2023-01-20T01:38:59.286Z,2.00
2023-01-20T01:41:26.582Z,1.87
2023-01-20T01:44:07.685Z,1.40
2023-01-20T01:46:34.617Z,1.90
2023-01-20T01:49:07.316Z,1.50
2023-01-20T01:51:42.771Z,1.60
2023-01-20T01:54:13.940Z,1.67
2023-01-20T01:56:43.600Z,1.43
2023-01-20T01:59:12.487Z,1.57
2023-01-20T02:01:42.943Z,1.50
2023-01-20T02:04:13.681Z,1.90
2023-01-20T02:06:45.777Z,1.77
2023-01-20T02:09:13.307Z,1.53
2023-01-20T02:11:48.324Z,1.57
2023-01-20T02:14:20.408Z,1.60
2023-01-20T02:17:01.963Z,1.50
2023-01-20T02:19:46.305Z,1.90
2023-01-20T02:22:35.954Z,1.83
2023-01-20T02:25:40.481Z,1.50
2023-01-20T02:28:15.736Z,1.40
2023-01-20T02:30:51.053Z,2.20
2023-01-20T02:33:23.530Z,1.27
2023-01-20T02:35:55.812Z,1.50
2023-01-20T02:38:47.807Z,1.47
2023-01-20T02:41:23.772Z,1.40
2023-01-20T02:44:00.500Z,1.40
2023-01-20T02:46:34.117Z,1.30
2023-01-20T02:49:27.632Z,1.20
2023-01-20T02:52:03.072Z,1.50
2023-01-20T02:54:33.816Z,1.27
2023-01-20T02:57:05.351Z,1.00
2023-01-20T02:59:36.706Z,1.17
2023-01-20T03:02:06.436Z,1.20
2023-01-20T03:04:46.101Z,1.20
2023-01-20T03:07:15.384Z,1.13
2023-01-20T03:09:46.535Z,1.07
2023-01-20T03:12:24.195Z,1.20
2023-01-20T03:14:52.383Z,1.20
2023-01-20T03:17:20.073Z,1.17
2023-01-20T03:19:47.352Z,1.73
2023-01-20T03:22:15.454Z,1.40
2023-01-20T03:24:44.000Z,0.83
2023-01-20T03:27:11.578Z,1.20
2023-01-20T03:29:38.143Z,1.67
2023-01-20T03:32:07.853Z,1.37
2023-01-20T03:34:38.322Z,1.20
2023-01-20T03:37:05.649Z,1.60
2023-01-20T03:39:33.234Z,1.40
2023-01-20T03:42:21.395Z,1.30
2023-01-20T03:45:06.985Z,1.67
2023-01-20T03:48:02.488Z,1.23
2023-01-20T03:53:13.585Z,1.70
2023-01-20T03:55:58.107Z,1.40
2023-01-20T03:58:30.443Z,1.48
2023-01-20T04:00:57.833Z,1.73
2023-01-20T04:03:29.418Z,2.20
2023-01-20T04:06:02.720Z,1.27
2023-01-20T04:08:33.719Z,1.27
2023-01-20T04:11:03.631Z,1.10
2023-01-20T04:13:30.385Z,1.50
2023-01-20T04:15:59.610Z,1.47
2023-01-20T04:18:26.183Z,1.27
2023-01-20T04:21:03.492Z,1.33
2023-01-20T04:23:35.227Z,1.30
2023-01-20T04:26:01.716Z,1.30
2023-01-20T04:28:28.420Z,1.27
2023-01-20T04:30:55.060Z,1.20
2023-01-20T04:33:21.619Z,1.60
2023-01-20T04:35:48.107Z,1.43
2023-01-20T04:38:14.592Z,1.20
2023-01-20T04:40:41.283Z,1.63
2023-01-20T04:43:09.988Z,1.20
2023-01-20T04:45:36.531Z,1.57
2023-01-20T04:48:07.372Z,1.50
2023-01-20T04:50:37.840Z,1.20
2023-01-20T04:53:04.335Z,1.20
2023-01-20T04:55:32.782Z,2.03
2023-01-20T04:57:59.257Z,1.50
2023-01-20T05:00:25.799Z,0.93
2023-01-20T05:02:52.987Z,1.60
2023-01-20T05:05:19.527Z,1.03
2023-01-20T05:07:46.036Z,1.33
2023-01-20T05:10:13.372Z,1.20
2023-01-20T05:12:41.210Z,1.80
2023-01-20T05:15:08.163Z,1.30
2023-01-20T05:17:34.703Z,1.17
2023-01-20T05:20:01.164Z,1.40
2023-01-20T05:22:29.494Z,1.07
2023-01-20T05:24:56.068Z,1.00
2023-01-20T05:27:22.559Z,1.17
2023-01-20T05:29:49.455Z,1.30
2023-01-20T05:32:16.006Z,1.97
2023-01-20T05:34:42.520Z,1.10
2023-01-20T05:37:09.032Z,1.33
2023-01-20T05:39:35.523Z,1.20
2023-01-20T05:42:02.566Z,1.10
2023-01-20T05:44:29.076Z,1.47
2023-01-20T05:46:55.571Z,1.40
2023-01-20T05:49:22.143Z,1.50
2023-01-20T05:51:48.746Z,0.90
2023-01-20T05:54:15.363Z,0.90
2023-01-20T05:56:41.826Z,2.40
2023-01-20T05:59:08.357Z,2.00
2023-01-20T06:01:34.936Z,3.23
2023-01-20T06:04:01.689Z,1.37
2023-01-20T06:06:28.288Z,1.40
2023-01-20T06:08:54.899Z,2.40
2023-01-20T06:11:21.627Z,1.30
2023-01-20T06:13:48.664Z,1.60
2023-01-20T06:16:17.602Z,1.10
2023-01-20T06:18:44.328Z,1.17
2023-01-20T06:21:11.134Z,1.50
2023-01-20T06:23:37.978Z,1.50
2023-01-20T06:26:07.436Z,1.47
2023-01-20T06:28:34.637Z,1.37
2023-01-20T06:31:07.060Z,1.77
2023-01-20T06:33:34.266Z,1.60
2023-01-20T06:36:01.088Z,1.37
2023-01-20T06:38:30.885Z,1.70
2023-01-20T06:41:02.126Z,1.80
2023-01-20T06:43:33.961Z,1.60
2023-01-20T06:46:06.212Z,1.60
2023-01-20T06:48:33.512Z,1.70
2023-01-20T06:51:04.978Z,2.00
2023-01-20T06:53:31.592Z,1.60
2023-01-20T06:56:00.372Z,1.90
2023-01-20T06:58:29.313Z,1.73
2023-01-20T07:00:57.372Z,1.60
2023-01-20T07:03:24.460Z,2.10
2023-01-20T07:05:56.508Z,1.50
2023-01-20T07:08:23.133Z,1.27
2023-01-20T07:10:49.611Z,2.57
2023-01-20T07:13:16.133Z,1.90
2023-01-20T07:15:42.695Z,2.00
2023-01-20T07:18:09.332Z,2.07
2023-01-20T07:20:35.943Z,1.80
2023-01-20T07:23:02.587Z,3.07
2023-01-20T07:25:29.441Z,1.87
2023-01-20T07:27:57.741Z,1.90
2023-01-20T07:30:25.024Z,2.40
2023-01-20T07:32:52.191Z,2.00
2023-01-20T07:35:19.038Z,2.00
2023-01-20T07:37:45.523Z,2.30
2023-01-20T07:40:12.468Z,2.07
2023-01-20T07:42:39.566Z,2.23
2023-01-20T07:45:06.729Z,1.93
2023-01-20T07:47:33.316Z,2.87
2023-01-20T07:50:00.536Z,2.27
2023-01-20T07:52:27.038Z,2.10
2023-01-20T07:54:53.720Z,2.27
2023-01-20T07:57:20.235Z,2.60
2023-01-20T07:59:46.749Z,3.23
2023-01-20T08:02:13.225Z,2.60
2023-01-20T08:04:40.499Z,2.53
2023-01-20T08:07:07.081Z,2.30
2023-01-20T08:09:33.637Z,2.47
2023-01-20T08:12:01.878Z,2.10
2023-01-20T08:14:28.454Z,1.90
2023-01-20T08:16:55.021Z,2.30
2023-01-20T08:19:21.578Z,1.83
2023-01-20T08:21:48.053Z,2.30
2023-01-20T08:24:14.771Z,2.53
2023-01-20T08:26:41.290Z,2.17
2023-01-20T08:29:09.550Z,2.70
2023-01-20T08:31:36.693Z,2.73
2023-01-20T08:34:04.580Z,2.30
2023-01-20T08:36:34.826Z,2.37
2023-01-20T08:39:04.468Z,2.50
2023-01-20T08:41:36.868Z,2.17
2023-01-20T08:44:05.807Z,2.30
2023-01-20T08:46:33.217Z,2.77
2023-01-20T08:48:59.862Z,2.73
2023-01-20T08:51:29.349Z,2.70
2023-01-20T08:53:55.963Z,2.57
2023-01-20T08:56:23.041Z,2.63
2023-01-20T08:58:50.002Z,2.43
2023-01-20T09:01:37.892Z,2.37
2023-01-20T09:04:07.126Z,1.90
2023-01-20T09:06:55.462Z,2.43
2023-01-20T09:09:22.892Z,2.20
2023-01-20T09:11:52.428Z,2.63
2023-01-20T09:14:21.336Z,3.07
2023-01-20T09:16:48.574Z,2.43
2023-01-20T09:19:15.101Z,2.40
2023-01-20T09:21:43.036Z,1.80
2023-01-20T09:24:10.010Z,2.27
2023-01-20T09:26:39.366Z,2.23
2023-01-20T09:29:11.456Z,3.00
2023-01-20T09:31:39.903Z,2.33
2023-01-20T09:34:06.808Z,2.03
2023-01-20T09:36:33.324Z,2.20
2023-01-20T09:39:18.139Z,2.60
2023-01-20T09:42:07.276Z,2.70
2023-01-20T09:44:53.377Z,4.37
2023-01-20T09:47:31.139Z,2.40
2023-01-20T09:50:48.009Z,2.37
2023-01-20T09:53:32.775Z,2.53
2023-01-20T09:56:09.353Z,2.05
2023-01-20T09:58:50.759Z,2.20
2023-01-20T10:01:48.029Z,1.63
2023-01-20T10:04:26.227Z,3.00
2023-01-20T10:06:59.568Z,2.20
2023-01-20T10:09:45.395Z,1.98
2023-01-20T10:12:21.645Z,1.60
2023-01-20T10:14:58.483Z,2.08
2023-01-20T10:17:40.158Z,1.57
2023-01-20T10:20:32.003Z,1.63
2023-01-20T10:23:08.727Z,1.67
2023-01-20T10:25:48.538Z,1.92
2023-01-20T10:28:19.267Z,2.40
2023-01-20T10:30:47.403Z,2.63
2023-01-20T10:33:22.048Z,1.77
2023-01-20T10:35:52.171Z,1.80
2023-01-20T10:38:33.376Z,2.00
2023-01-20T10:41:19.816Z,3.43
2023-01-20T10:43:47.672Z,2.55
2023-01-20T10:46:20.120Z,2.15
2023-01-20T10:49:25.573Z,2.50
2023-01-20T10:51:59.988Z,2.25
2023-01-20T10:54:35.771Z,1.83
2023-01-20T10:57:05.485Z,1.80
2023-01-20T10:59:37.376Z,1.88
2023-01-20T11:02:15.286Z,1.77
2023-01-20T11:04:42.297Z,1.92
2023-01-20T11:07:15.514Z,1.77
2023-01-20T11:09:42.671Z,1.73
2023-01-20T11:12:42.734Z,1.83
2023-01-20T11:15:21.212Z,1.98
2023-01-20T11:18:20.510Z,1.83
2023-01-20T11:21:00.456Z,2.33
2023-01-20T11:23:38.727Z,2.75
2023-01-20T11:26:17.478Z,1.52
2023-01-20T11:28:46.144Z,2.13
2023-01-20T11:31:13.582Z,1.95
2023-01-20T11:33:40.260Z,2.03
2023-01-20T11:36:33.246Z,2.07
2023-01-20T11:38:59.892Z,2.20
2023-01-20T11:41:31.107Z,1.80
2023-01-20T11:43:59.868Z,2.05
2023-01-20T11:46:26.415Z,2.22
2023-01-20T11:49:11.883Z,1.80
2023-01-20T11:51:55.059Z,1.83
2023-01-20T11:54:26.992Z,2.15
2023-01-20T11:57:09.420Z,2.10
2023-01-20T11:59:46.967Z,2.10
2023-01-20T12:02:14.042Z,2.85
2023-01-20T12:05:08.305Z,2.38
2023-01-20T12:07:41.006Z,2.45
2023-01-20T12:10:19.098Z,2.35
2023-01-20T12:12:52.312Z,1.90
2023-01-20T12:15:25.298Z,2.17
2023-01-20T12:17:58.545Z,2.35
2023-01-20T12:20:49.227Z,2.10
2023-01-20T12:23:39.227Z,2.03
2023-01-20T12:26:06.789Z,1.97
2023-01-20T12:28:52.129Z,2.10
2023-01-20T12:31:20.555Z,2.63
2023-01-20T12:34:12.308Z,2.30
2023-01-20T12:36:57.530Z,1.95
2023-01-20T12:39:27.691Z,1.88
2023-01-20T12:42:11.458Z,1.95
2023-01-20T12:44:56.489Z,1.95
2023-01-20T12:50:16.131Z,2.03
2023-01-20T12:52:51.936Z,2.13
2023-01-20T12:55:23.245Z,2.22
2023-01-20T12:58:14.395Z,1.65
2023-01-20T13:00:56.100Z,1.90
2023-01-20T13:03:47.042Z,1.48
2023-01-20T13:06:23.272Z,1.52
2023-01-20T13:09:27.146Z,1.45
2023-01-20T13:12:06.352Z,1.52
2023-01-20T13:14:40.763Z,1.73
2023-01-20T13:17:36.113Z,2.10
2023-01-20T13:20:05.006Z,1.73
2023-01-20T13:22:31.738Z,1.80
2023-01-20T13:25:04.679Z,1.77
2023-01-20T13:27:37.372Z,1.85
2023-01-20T13:30:28.490Z,2.90
2023-01-20T13:33:04.456Z,1.38
2023-01-20T13:35:32.433Z,1.80
2023-01-20T13:38:02.843Z,1.55
2023-01-20T13:40:38.457Z,1.23
2023-01-20T13:43:26.298Z,1.33
2023-01-20T13:46:04.778Z,1.80
2023-01-20T13:48:35.814Z,1.88
2023-01-20T13:51:26.562Z,2.05
2023-01-20T13:53:53.434Z,1.85
2023-01-20T13:56:30.594Z,1.75
2023-01-20T13:59:00.167Z,1.60
2023-01-20T14:01:28.083Z,1.98
2023-01-20T14:04:05.952Z,1.77
2023-01-20T14:06:35.967Z,2.08
2023-01-20T14:09:03.606Z,1.35
2023-01-20T14:11:31.421Z,1.70
2023-01-20T14:14:03.085Z,1.48
2023-01-20T14:16:37.392Z,1.75
2023-01-20T14:19:22.487Z,1.70
2023-01-20T14:24:30.443Z,1.63
2023-01-20T14:27:14.275Z,1.92
2023-01-20T14:29:40.859Z,1.40
2023-01-20T14:32:35.277Z,1.55
2023-01-20T14:35:04.417Z,1.20
2023-01-20T14:37:38.235Z,1.55
2023-01-20T14:40:08.094Z,1.10
2023-01-20T14:42:34.774Z,1.20
2023-01-20T14:45:01.314Z,1.50
2023-01-20T14:47:31.524Z,1.55
2023-01-20T14:49:58.115Z,1.98
2023-01-20T14:52:28.752Z,1.52
2023-01-20T14:54:59.001Z,1.23
2023-01-20T14:57:30.066Z,1.80
2023-01-20T15:00:15.124Z,1.20
2023-01-20T15:03:09.971Z,1.35
2023-01-20T15:08:24.380Z,1.15
2023-01-20T15:11:18.964Z,1.50
2023-01-20T15:13:51.379Z,1.67
2023-01-20T15:16:23.844Z,1.20
2023-01-20T15:19:22.773Z,1.45
2023-01-20T15:21:52.617Z,0.90
2023-01-20T15:24:22.403Z,1.25
2023-01-20T15:26:51.931Z,1.10
2023-01-20T15:29:25.688Z,1.20
2023-01-20T15:31:53.999Z,1.20
2023-01-20T15:34:21.722Z,1.35
2023-01-20T15:36:50.079Z,1.13
2023-01-20T15:39:18.652Z,1.17
2023-01-20T15:41:46.616Z,1.15
2023-01-20T15:44:16.011Z,1.48
2023-01-20T15:46:42.670Z,1.42
2023-01-20T15:49:12.950Z,2.00
2023-01-20T15:51:39.581Z,1.05
2023-01-20T15:54:09.343Z,1.20
2023-01-20T15:56:38.835Z,3.20
2023-01-20T15:59:17.493Z,1.23
2023-01-20T16:01:49.940Z,1.17
2023-01-20T16:04:16.715Z,1.70
2023-01-20T16:06:43.917Z,1.60
2023-01-20T16:09:24.315Z,1.92
2023-01-20T16:11:50.879Z,2.20
2023-01-20T16:14:17.380Z,1.50
2023-01-20T16:16:43.919Z,3.28
2023-01-20T16:19:14.129Z,1.83
2023-01-20T16:21:41.974Z,1.95
2023-01-20T16:24:09.603Z,2.60
2023-01-20T16:26:36.220Z,2.22
2023-01-20T16:29:04.857Z,2.50
2023-01-20T16:31:32.483Z,2.50
2023-01-20T16:33:59.124Z,2.25
2023-01-20T16:36:25.986Z,3.75
2023-01-20T16:38:52.915Z,2.47
2023-01-20T16:41:28.857Z,3.85
2023-01-20T16:43:56.102Z,4.90
2023-01-20T16:46:26.127Z,6.20
2023-01-20T16:49:03.477Z,9.40
2023-01-20T16:51:31.331Z,5.85
2023-01-20T16:53:58.268Z,3.65
2023-01-20T16:56:28.065Z,4.90
2023-01-20T16:59:00.526Z,6.65
2023-01-20T17:01:29.013Z,8.90
2023-01-20T17:04:01.224Z,4.73
2023-01-20T17:06:30.655Z,5.53
2023-01-20T17:08:59.321Z,19.02
2023-01-20T17:11:35.241Z,5.60
2023-01-20T17:14:04.174Z,5.47
2023-01-20T17:16:31.609Z,4.32
2023-01-20T17:19:00.413Z,8.48
2023-01-20T17:21:29.878Z,4.30
2023-01-20T17:23:59.946Z,5.93
2023-01-20T17:26:26.537Z,6.75
2023-01-20T17:28:58.584Z,5.03
2023-01-20T17:31:25.694Z,4.43
2023-01-20T17:33:52.598Z,4.15
2023-01-20T17:36:19.411Z,6.07
2023-01-20T17:38:46.347Z,6.22
2023-01-20T17:41:14.115Z,5.03
2023-01-20T17:43:44.134Z,5.87
2023-01-20T17:46:25.473Z,6.20
2023-01-20T17:48:51.989Z,6.70
2023-01-20T17:51:21.188Z,5.03
2023-01-20T17:53:48.180Z,16.87
2023-01-20T17:56:16.007Z,8.70
2023-01-20T17:58:44.107Z,7.27
2023-01-20T18:01:14.815Z,6.10
2023-01-20T18:03:43.201Z,6.30
2023-01-20T18:06:15.046Z,6.30
2023-01-20T18:08:42.106Z,8.70
2023-01-20T18:11:16.740Z,8.20
2023-01-20T18:13:45.868Z,6.70
2023-01-20T18:16:15.798Z,8.00
2023-01-20T18:18:43.832Z,8.00
2023-01-20T18:21:12.993Z,12.10
2023-01-20T18:23:40.808Z,9.87
2023-01-20T18:26:08.707Z,12.10
2023-01-20T18:28:36.367Z,13.63
2023-01-20T18:31:08.588Z,10.90
2023-01-20T18:33:41.032Z,9.57
2023-01-20T18:36:09.406Z,9.57
2023-01-20T18:38:36.078Z,10.43
2023-01-20T18:41:03.259Z,14.50
2023-01-20T18:43:30.812Z,13.30
2023-01-20T18:45:57.355Z,15.97
2023-01-20T18:48:25.408Z,18.70
2023-01-20T18:50:53.134Z,10.13
2023-01-20T18:53:19.674Z,14.20
2023-01-20T18:55:46.202Z,8.53
2023-01-20T18:58:16.338Z,10.87
2023-01-20T19:00:43.611Z,12.03
2023-01-20T19:03:11.786Z,13.50
2023-01-20T19:05:38.371Z,13.20
2023-01-20T19:08:05.167Z,14.83
2023-01-20T19:10:31.759Z,13.17
2023-01-20T19:12:58.327Z,13.80
2023-01-20T19:15:25.082Z,15.43
2023-01-20T19:17:51.951Z,13.70
2023-01-20T19:20:18.729Z,12.23
2023-01-20T19:22:45.321Z,9.57
2023-01-20T19:25:11.851Z,10.83
2023-01-20T19:27:38.406Z,14.07
2023-01-20T19:30:05.940Z,11.40
2023-01-20T19:32:32.439Z,15.50
2023-01-20T19:34:58.994Z,19.07
2023-01-20T19:37:25.719Z,10.23
2023-01-20T19:39:52.207Z,13.57
2023-01-20T19:42:18.761Z,11.07
2023-01-20T19:44:45.280Z,10.23
2023-01-20T19:47:11.783Z,16.53
2023-01-20T19:49:38.363Z,66.47
2023-01-20T19:52:05.910Z,17.13
2023-01-20T19:54:33.580Z,37.50
2023-01-20T19:57:00.588Z,13.40
2023-01-20T19:59:27.127Z,10.77
2023-01-20T20:01:53.682Z,11.37
2023-01-20T20:04:20.704Z,9.90
2023-01-20T20:06:48.787Z,9.33
2023-01-20T20:09:21.230Z,12.33
2023-01-20T20:11:49.505Z,10.97
2023-01-20T20:14:18.350Z,9.93
2023-01-20T20:16:46.594Z,11.17
2023-01-20T20:19:16.164Z,10.83
2023-01-20T20:21:43.123Z,11.53
2023-01-20T20:24:15.067Z,11.53
2023-01-20T20:26:42.139Z,10.57
2023-01-20T20:29:10.323Z,11.10
2023-01-20T20:31:38.244Z,10.73
2023-01-20T20:34:07.638Z,12.07
2023-01-20T20:36:34.944Z,9.33
2023-01-20T20:39:04.971Z,9.33
2023-01-20T20:41:33.272Z,10.57
2023-01-20T20:44:01.088Z,13.47
2023-01-20T20:46:29.301Z,10.60
2023-01-20T20:48:59.244Z,11.47
2023-01-20T20:51:26.727Z,9.23
2023-01-20T20:53:55.430Z,9.80
2023-01-20T20:56:22.500Z,9.27
2023-01-20T20:59:01.080Z,10.93
2023-01-20T21:01:30.557Z,19.03
2023-01-20T21:03:57.977Z,12.90
2023-01-20T21:06:25.404Z,11.50
2023-01-20T21:08:52.793Z,10.70
2023-01-20T21:11:20.369Z,10.23
2023-01-20T21:13:49.442Z,9.87
2023-01-20T21:16:20.716Z,9.40
2023-01-20T21:18:47.754Z,7.80
2023-01-20T21:21:17.110Z,8.17
2023-01-20T21:23:50.142Z,7.07
2023-01-20T21:26:16.749Z,8.77
2023-01-20T21:28:44.400Z,8.00
2023-01-20T21:31:14.333Z,7.97
2023-01-20T21:33:42.807Z,8.20
2023-01-20T21:36:12.400Z,8.60
2023-01-20T21:38:42.973Z,6.80
2023-01-20T21:41:11.114Z,6.63
2023-01-20T21:43:59.270Z,8.37
2023-01-20T21:46:28.471Z,6.90
2023-01-20T21:49:13.935Z,7.57
2023-01-20T21:51:59.070Z,6.40
2023-01-20T21:56:56.238Z,7.40
2023-01-20T21:59:23.194Z,7.93
2023-01-20T22:01:51.721Z,7.80
2023-01-20T22:04:18.845Z,7.97
2023-01-20T22:06:45.755Z,8.40
2023-01-20T22:09:12.932Z,9.43
2023-01-20T22:11:39.540Z,9.70
2023-01-20T22:14:06.205Z,8.77
2023-01-20T22:16:32.717Z,13.93
2023-01-20T22:18:59.266Z,14.83
2023-01-20T22:21:26.335Z,15.97
2023-01-20T22:23:53.688Z,17.33
2023-01-20T22:26:20.333Z,18.60
2023-01-20T22:28:46.975Z,18.00
2023-01-20T22:31:17.676Z,18.00
2023-01-20T22:33:44.254Z,20.73
2023-01-20T22:36:10.790Z,20.80
2023-01-20T22:38:37.399Z,19.50
2023-01-20T22:41:05.826Z,19.50
2023-01-20T22:43:33.850Z,17.67
2023-01-20T22:46:02.178Z,18.77
2023-01-20T22:48:31.059Z,18.43
2023-01-20T22:51:05.752Z,19.30
2023-01-20T22:56:06.759Z,19.00
2023-01-20T22:58:34.710Z,20.00
2023-01-20T23:01:01.824Z,21.07
2023-01-20T23:03:28.871Z,20.60
2023-01-20T23:05:57.837Z,20.33
2023-01-20T23:08:25.973Z,23.27
2023-01-20T23:10:57.965Z,24.93
2023-01-20T23:13:24.593Z,24.07
2023-01-20T23:15:51.375Z,22.57
2023-01-20T23:18:18.899Z,24.60
2023-01-20T23:20:50.842Z,26.50
2023-01-20T23:23:18.643Z,26.83
2023-01-20T23:25:46.123Z,25.27
2023-01-20T23:28:13.461Z,25.07
2023-01-20T23:30:40.157Z,24.30
2023-01-20T23:33:07.595Z,23.93
2023-01-20T23:35:38.901Z,25.13
2023-01-20T23:38:08.801Z,25.40
2023-01-20T23:40:35.940Z,24.60
2023-01-20T23:43:02.524Z,26.00
2023-01-20T23:45:29.138Z,25.10
2023-01-20T23:47:55.740Z,24.33
2023-01-20T23:50:22.332Z,25.50
2023-01-20T23:52:48.955Z,27.00
2023-01-20T23:55:15.853Z,24.80
2023-01-20T23:57:42.740Z,23.73
